Time;durP1;ratioP1;P1;durP2;ratioP2;P2;SDS_P1;SDS_P2;PMS_P1;PMS_P2;Temp;Humidity;BMP_temperature;BMP_pressure;BME280_temperature;BME280_humidity;BME280_pressure;Samples;Min_cycle;Max_cycle;Signal;HPM_P1;HPM_P2
2023/05/11 00:02:12;;;;;;;2.42;2.20;;;;;;;21.01;58.56;93890.94;5082183;28;20027;-92
2023/05/11 00:04:38;;;;;;;2.65;2.13;;;;;;;20.27;63.89;93892.19;5065381;28;20028;-93
2023/05/11 00:07:03;;;;;;;2.83;2.28;;;;;;;20.70;58.79;93895.94;5081984;28;20085;-93
2023/05/11 00:09:29;;;;;;;2.78;2.28;;;;;;;20.83;58.62;93898.53;5081776;28;20024;-93
2023/05/11 00:11:54;;;;;;;2.40;2.20;;;;;;;20.99;59.23;93882.53;5081781;28;20028;-92
2023/05/11 00:14:20;;;;;;;3.65;2.35;;;;;;;21.87;56.22;93891.28;5065304;28;20031;-91
2023/05/11 00:16:45;;;;;;;2.58;1.98;;;;;;;21.36;58.04;93884.88;5065073;28;20119;-92
2023/05/11 00:19:10;;;;;;;3.40;2.53;;;;;;;21.37;57.95;93888.31;5065050;28;20028;-92
2023/05/11 00:21:36;;;;;;;3.40;2.70;;;;;;;20.41;58.69;93878.47;5064997;28;20028;-92
2023/05/11 00:24:01;;;;;;;2.50;2.10;;;;;;;20.17;62.16;93883.59;5081405;28;20028;-93
2023/05/11 00:26:27;;;;;;;3.28;2.38;;;;;;;20.76;60.05;93883.91;5065095;28;20122;-92
2023/05/11 00:28:52;;;;;;;1.98;1.77;;;;;;;20.49;60.68;93878.31;5064892;28;20444;-93
2023/05/11 00:31:18;;;;;;;1.88;1.67;;;;;;;20.65;58.92;93887.44;5064974;28;20031;-92
2023/05/11 00:33:43;;;;;;;2.25;1.88;;;;;;;21.51;55.92;93869.22;5081562;28;20066;-93
2023/05/11 00:36:09;;;;;;;2.20;1.80;;;;;;;19.97;58.34;93884.56;5065075;28;20031;-93
2023/05/11 00:38:42;;;;;;;2.35;1.83;;;;;;;20.57;58.98;93884.56;5081300;28;20379;-91
2023/05/11 00:41:07;;;;;;;1.63;1.52;;;;;;;20.21;60.13;93870.38;5065677;28;20034;-92
2023/05/11 00:43:33;;;;;;;1.88;1.50;;;;;;;20.29;58.97;93866.03;5081562;28;20032;-93
2023/05/11 00:45:59;;;;;;;1.60;1.40;;;;;;;20.57;61.06;93865.19;5064493;28;20028;-92
2023/05/11 00:48:25;;;;;;;2.38;1.50;;;;;;;21.86;55.23;93863.06;5064647;28;20122;-93
2023/05/11 00:50:50;;;;;;;2.97;1.20;;;;;;;19.85;59.27;93858.75;5064543;28;20055;-92
2023/05/11 00:53:16;;;;;;;1.42;1.20;;;;;;;21.11;56.90;93857.72;5064751;28;20119;-92
2023/05/11 00:55:41;;;;;;;1.00;0.90;;;;;;;21.81;54.18;93853.47;5064526;28;20028;-93
2023/05/11 00:58:07;;;;;;;1.10;1.00;;;;;;;21.44;54.71;93856.50;5080963;28;20032;-93
2023/05/11 01:00:35;;;;;;;1.65;1.40;;;;;;;20.65;56.50;93860.81;5064537;28;20468;-93
2023/05/11 01:03:01;;;;;;;1.33;1.15;;;;;;;21.21;55.50;93867.06;5064598;28;20497;-92
2023/05/11 01:05:33;;;;;;;1.40;0.95;;;;;;;21.54;55.62;93863.16;5064142;28;20042;-93
2023/05/11 01:08:11;;;;;;;3.20;1.40;;;;;;;20.97;55.71;93860.81;5064240;28;20031;-93
2023/05/11 01:10:40;;;;;;;2.60;1.20;;;;;;;20.09;57.12;93863.25;5064224;28;20031;-93
2023/05/11 01:13:34;;;;;;;1.23;1.00;;;;;;;20.18;58.95;93866.50;5080786;28;20031;-91
2023/05/11 01:16:00;;;;;;;;;;;;;;;21.42;54.85;93875.50;5064468;28;20032;-93
2023/05/11 01:18:29;;;;;;;2.58;1.50;;;;;;;19.10;61.43;93871.47;5064100;28;19908;-93
2023/05/11 01:20:57;;;;;;;2.75;1.00;;;;;;;19.63;60.97;93868.81;5063888;28;20338;-93
2023/05/11 01:23:50;;;;;;;1.00;0.90;;;;;;;19.90;59.81;93871.84;5063979;28;20034;-94
2023/05/11 01:26:36;;;;;;;1.20;0.90;;;;;;;20.34;58.00;93871.88;5080736;28;20320;-93
2023/05/11 01:29:40;;;;;;;0.93;0.93;;;;;;;20.64;56.39;93870.66;5063770;28;20274;-92
2023/05/11 01:32:18;;;;;;;7.32;1.20;;;;;;;18.84;64.66;93857.38;5063689;28;20027;-93
2023/05/11 01:34:45;;;;;;;1.13;1.00;;;;;;;19.94;60.28;93871.94;5063410;28;20039;-92
2023/05/11 01:37:21;;;;;;;1.40;1.02;;;;;;;20.36;59.18;93866.19;5063569;28;20038;-93
2023/05/11 01:39:56;;;;;;;1.10;1.00;;;;;;;20.30;58.96;93867.56;5080493;28;20027;-94
2023/05/11 01:42:29;;;;;;;1.50;1.40;;;;;;;20.68;57.06;93868.09;5063591;28;20073;-92
2023/05/11 01:44:55;;;;;;;1.60;1.23;;;;;;;20.32;57.23;93866.13;5063415;28;20028;-92
2023/05/11 01:47:22;;;;;;;2.20;1.38;;;;;;;20.81;57.12;93866.94;5063328;28;20130;-92
2023/05/11 01:49:49;;;;;;;4.03;1.83;;;;;;;18.75;67.88;93865.47;5063201;28;20032;-92
2023/05/11 01:52:15;;;;;;;2.60;2.05;;;;;;;19.43;61.08;93870.53;5063455;28;20027;-94
2023/05/11 01:54:41;;;;;;;4.75;1.75;;;;;;;20.12;61.40;93865.22;5063606;28;20032;-92
2023/05/11 01:57:08;;;;;;;3.40;2.00;;;;;;;20.91;56.99;93873.63;5063287;28;20339;-93
2023/05/11 01:59:34;;;;;;;2.10;1.60;;;;;;;20.12;59.01;93878.53;5063398;28;20093;-93
2023/05/11 02:02:00;;;;;;;2.25;1.52;;;;;;;20.92;57.79;93877.81;5063033;28;20024;-94
2023/05/11 02:04:27;;;;;;;2.38;1.63;;;;;;;20.74;57.08;93883.47;5063236;28;20035;-93
2023/05/11 02:06:53;;;;;;;2.13;1.30;;;;;;;19.57;61.44;93873.59;5062884;28;20052;-93
2023/05/11 02:09:20;;;;;;;4.55;1.70;;;;;;;20.20;60.31;93880.25;5063206;28;20070;-94
2023/05/11 02:11:46;;;;;;;1.45;1.17;;;;;;;20.53;59.84;93881.06;5063328;28;20031;-92
2023/05/11 02:14:12;;;;;;;2.30;1.42;;;;;;;20.18;60.42;93873.75;5062987;28;20027;-92
2023/05/11 02:16:38;;;;;;;2.17;1.58;;;;;;;20.25;60.07;93867.84;5063015;28;20442;-93
2023/05/11 02:19:06;;;;;;;2.55;1.70;;;;;;;20.30;60.53;93871.00;5062961;28;20024;-92
2023/05/11 02:21:31;;;;;;;1.27;1.10;;;;;;;20.31;60.20;93866.44;5063136;28;20024;-91
2023/05/11 02:23:59;;;;;;;2.00;1.30;;;;;;;20.28;60.03;93867.91;5062929;28;20035;-91
2023/05/11 02:26:24;;;;;;;1.50;1.40;;;;;;;20.29;59.74;93874.75;5062926;28;20024;-91
2023/05/11 02:28:50;;;;;;;3.28;1.20;;;;;;;19.85;61.48;93875.50;5079729;28;20035;-93
2023/05/11 02:31:24;;;;;;;1.15;1.05;;;;;;;20.15;59.84;93866.41;5062876;28;20416;-93
2023/05/11 02:33:50;;;;;;;2.28;1.10;;;;;;;20.98;58.63;93868.47;5062986;28;20032;-93
2023/05/11 02:36:21;;;;;;;3.35;1.20;;;;;;;21.27;56.30;93861.13;5062702;28;20429;-92
2023/05/11 02:38:47;;;;;;;1.55;1.05;;;;;;;20.85;55.81;93867.03;5062977;28;20038;-93
2023/05/11 02:41:16;;;;;;;0.70;0.70;;;;;;;21.33;55.68;93861.63;5079315;28;20028;-92
2023/05/11 02:43:47;;;;;;;0.70;0.70;;;;;;;20.39;60.84;93860.22;5062909;28;20039;-93
2023/05/11 02:46:15;;;;;;;0.85;0.80;;;;;;;21.21;57.02;93853.75;5062874;28;20506;-93
2023/05/11 02:48:44;;;;;;;4.63;1.10;;;;;;;21.64;56.14;93859.19;5066155;28;20030;-92
2023/05/11 02:51:11;;;;;;;0.70;0.70;;;;;;;21.09;55.83;93854.59;5066911;28;20024;-92
2023/05/11 02:53:39;;;;;;;1.15;0.90;;;;;;;21.36;55.72;93855.59;5066751;28;20063;-92
2023/05/11 02:56:05;;;;;;;1.00;0.98;;;;;;;21.45;55.40;93850.84;5083271;28;20047;-93
2023/05/11 02:58:31;;;;;;;1.10;1.00;;;;;;;20.66;58.12;93851.72;5083160;28;20031;-92
2023/05/11 03:00:57;;;;;;;0.80;0.80;;;;;;;20.12;58.36;93851.94;5083011;28;20036;-93
2023/05/11 03:03:23;;;;;;;0.90;0.88;;;;;;;20.18;58.57;93860.44;5083077;28;20027;-93
2023/05/11 03:05:49;;;;;;;0.70;0.68;;;;;;;19.93;59.76;93865.88;5066458;28;20039;-93
2023/05/11 03:08:23;;;;;;;5.97;0.95;;;;;;;20.79;57.37;93849.72;5083015;28;20035;-93
2023/05/11 03:10:50;;;;;;;1.35;1.10;;;;;;;21.15;56.86;93845.25;5066525;28;20071;-92
2023/05/11 03:13:20;;;;;;;0.70;0.70;;;;;;;21.04;55.56;93848.44;5082887;28;20027;-92
2023/05/11 03:15:47;;;;;;;1.35;0.93;;;;;;;20.53;56.96;93851.03;5066606;28;20097;-92
2023/05/11 03:18:13;;;;;;;1.40;1.30;;;;;;;21.17;55.34;93843.78;5066030;28;20039;-92
2023/05/11 03:20:40;;;;;;;1.73;1.60;;;;;;;21.61;53.43;93848.09;5100697;28;20429;-92
2023/05/11 03:23:06;;;;;;;1.23;1.10;;;;;;;21.41;54.48;93833.22;5066135;28;20028;-92
2023/05/11 03:25:32;;;;;;;1.08;0.98;;;;;;;21.11;55.04;93845.16;5082590;28;20043;-92
2023/05/11 03:27:58;;;;;;;1.25;1.10;;;;;;;21.22;55.02;93834.72;5082899;28;20039;-93
2023/05/11 03:30:24;;;;;;;2.58;1.13;;;;;;;20.99;54.59;93834.59;5082492;28;20433;-92
2023/05/11 03:32:49;;;;;;;1.30;0.95;;;;;;;20.89;54.64;93833.25;5082444;28;20027;-92
2023/05/11 03:35:15;;;;;;;1.45;1.00;;;;;;;20.48;57.41;93844.06;5082324;28;20416;-93
2023/05/11 03:37:41;;;;;;;1.30;1.20;;;;;;;21.21;55.19;93830.53;5066303;28;20032;-92
2023/05/11 03:40:07;;;;;;;1.00;0.90;;;;;;;21.98;53.21;93830.16;5082131;28;20036;-92
2023/05/11 03:42:34;;;;;;;2.38;1.25;;;;;;;21.30;54.65;93830.31;5082579;28;20032;-94
2023/05/11 03:48:21;;;;;;;1.20;1.10;;;;;;;20.62;55.42;93836.44;5100269;28;20434;-92
2023/05/11 03:50:48;;;;;;;1.58;1.00;;;;;;;21.39;54.38;93838.13;5082098;28;20024;-92
2023/05/11 03:53:14;;;;;;;1.30;1.20;;;;;;;21.88;52.85;93837.59;5065661;28;20024;-92
2023/05/11 03:55:40;;;;;;;1.40;1.30;;;;;;;20.73;55.36;93838.56;5065599;28;20122;-93
2023/05/11 03:58:09;;;;;;;1.63;1.25;;;;;;;21.80;53.21;93838.56;5081681;28;20578;-92
2023/05/11 04:00:41;;;;;;;1.20;1.10;;;;;;;22.06;52.05;93833.72;5065475;28;20321;-92
2023/05/11 04:03:08;;;;;;;1.40;1.00;;;;;;;21.94;52.07;93835.41;5065575;28;20035;-94
2023/05/11 04:05:34;;;;;;;1.00;0.90;;;;;;;21.19;54.18;93833.53;5082069;28;20052;-93
2023/05/11 04:08:00;;;;;;;1.10;1.00;;;;;;;20.83;55.40;93834.66;5065361;28;20089;-94
2023/05/11 04:10:26;;;;;;;1.13;1.00;;;;;;;21.21;53.66;93832.44;5081812;28;20031;-93
2023/05/11 04:12:52;;;;;;;1.00;0.90;;;;;;;21.49;54.02;93829.56;5081854;28;20024;-94
2023/05/11 04:15:18;;;;;;;1.40;1.30;;;;;;;21.53;53.37;93826.97;5082260;28;20020;-93
2023/05/11 04:17:43;;;;;;;1.30;1.20;;;;;;;21.34;53.02;93820.53;5065254;28;20023;-92
2023/05/11 04:20:09;;;;;;;1.35;1.10;;;;;;;21.79;52.51;93829.03;5081746;28;20023;-92
2023/05/11 04:22:34;;;;;;;1.23;0.93;;;;;;;22.04;51.48;93820.72;5081314;28;20070;-92
2023/05/11 04:25:20;;;;;;;1.13;1.00;;;;;;;22.51;49.85;93831.44;5081178;28;20027;-90
2023/05/11 04:27:46;;;;;;;1.73;1.25;;;;;;;22.18;50.98;93823.66;5074696;28;20058;-91
2023/05/11 04:30:11;;;;;;;0.88;0.80;;;;;;;21.97;51.29;93825.94;5064847;28;20031;-90
2023/05/11 04:32:37;;;;;;;1.13;1.00;;;;;;;22.17;50.15;93835.44;5064573;28;20061;-92
2023/05/11 04:35:02;;;;;;;4.32;1.38;;;;;;;22.15;50.18;93835.03;5081266;28;20073;-91
2023/05/11 04:37:28;;;;;;;2.08;1.00;;;;;;;22.15;49.92;93829.72;5098990;28;20123;-90
2023/05/11 04:39:53;;;;;;;1.33;1.10;;;;;;;22.33;49.70;93828.47;5064513;28;20417;-92
2023/05/11 04:42:19;;;;;;;1.67;1.23;;;;;;;22.27;49.12;93817.31;5080887;28;20050;-91
2023/05/11 04:44:44;;;;;;;2.90;1.00;;;;;;;22.33;49.44;93823.13;5080889;28;20028;-92
2023/05/11 04:47:10;;;;;;;0.80;0.80;;;;;;;21.40;50.47;93831.69;5064340;28;20031;-91
2023/05/11 04:49:35;;;;;;;1.20;0.80;;;;;;;22.31;49.87;93828.81;5064723;28;20063;-90
2023/05/11 04:52:00;;;;;;;8.38;1.00;;;;;;;22.67;49.58;93834.78;5044521;28;20140;-93
2023/05/11 04:54:26;;;;;;;1.92;1.30;;;;;;;21.83;50.92;93840.56;5044770;28;20032;-91
2023/05/11 04:56:51;;;;;;;1.70;1.25;;;;;;;21.20;52.13;93828.97;5060860;28;20333;-91
2023/05/11 04:59:19;;;;;;;3.90;0.88;;;;;;;22.42;49.34;93835.13;5060804;28;20035;-91
2023/05/11 05:01:48;;;;;;;1.30;1.05;;;;;;;22.51;50.45;93831.44;5058137;28;20032;-92
2023/05/11 05:04:13;;;;;;;1.58;1.15;;;;;;;22.25;49.56;93832.91;5062866;28;20035;-92
2023/05/11 05:06:39;;;;;;;4.03;0.80;;;;;;;22.80;48.63;93829.22;5064110;28;20350;-91
2023/05/11 05:09:05;;;;;;;1.73;1.20;;;;;;;22.43;48.58;93831.31;5080605;28;20024;-89
2023/05/11 05:11:31;;;;;;;1.90;0.70;;;;;;;22.60;47.35;93832.00;5063173;28;20030;-88
2023/05/11 05:13:56;;;;;;;1.10;0.55;;;;;;;22.10;49.45;93840.69;5063720;28;20468;-88
2023/05/11 05:16:21;;;;;;;0.55;0.50;;;;;;;22.75;48.16;93833.00;5062962;28;20486;-88
2023/05/11 05:18:47;;;;;;;0.60;0.60;;;;;;;22.48;47.82;93832.16;5064124;28;20024;-89
2023/05/11 05:21:12;;;;;;;0.95;0.50;;;;;;;22.20;48.88;93833.97;5063689;28;20077;-87
2023/05/11 05:23:38;;;;;;;1.95;0.70;;;;;;;22.27;48.85;93831.41;5063085;28;20039;-89
2023/05/11 05:26:03;;;;;;;0.50;0.50;;;;;;;23.08;47.41;93836.91;5063322;28;20032;-89
2023/05/11 05:28:29;;;;;;;0.93;0.63;;;;;;;22.11;49.46;93833.44;5063598;28;20080;-88
2023/05/11 05:30:54;;;;;;;0.70;0.63;;;;;;;21.64;49.60;93833.31;5061454;28;20016;-89
2023/05/11 05:33:19;;;;;;;0.50;0.50;;;;;;;22.81;48.00;93831.56;5080010;28;20028;-88
2023/05/11 05:35:45;;;;;;;0.90;0.60;;;;;;;21.83;50.10;93835.22;5073664;28;20017;-89
2023/05/11 05:38:11;;;;;;;1.52;0.60;;;;;;;22.83;49.20;93831.22;5078776;28;20028;-90
2023/05/11 05:40:38;;;;;;;0.60;0.60;;;;;;;22.74;48.74;93829.53;5079461;28;20028;-89
2023/05/11 05:43:04;;;;;;;0.73;0.60;;;;;;;23.49;47.67;93830.22;5063466;28;20054;-91
2023/05/11 05:45:29;;;;;;;0.60;0.60;;;;;;;23.07;46.74;93827.34;5079255;28;20028;-87
2023/05/11 05:47:55;;;;;;;0.52;0.52;;;;;;;24.12;45.19;93834.00;5079472;28;20028;-89
2023/05/11 05:50:21;;;;;;;0.70;0.68;;;;;;;23.50;46.71;93837.84;5079546;28;20020;-87
2023/05/11 05:52:46;;;;;;;1.02;0.70;;;;;;;24.27;45.70;93840.25;5079380;28;20031;-88
2023/05/11 05:55:29;;;;;;;0.80;0.73;;;;;;;24.43;47.86;93839.25;5062987;28;20440;-88
2023/05/11 05:57:55;;;;;;;0.47;0.47;;;;;;;23.35;46.00;93838.81;5097149;28;20023;-88
2023/05/11 06:00:20;;;;;;;1.20;0.40;;;;;;;23.34;46.33;93834.59;5079244;28;20020;-87
2023/05/11 06:02:45;;;;;;;0.50;0.50;;;;;;;23.48;45.87;93832.09;5079644;28;20060;-87
2023/05/11 06:05:11;;;;;;;1.27;0.90;;;;;;;22.85;47.19;93826.28;5079309;28;20020;-88
2023/05/11 06:07:36;;;;;;;1.85;0.50;;;;;;;23.27;47.34;93843.28;5078658;28;20031;-87
2023/05/11 06:10:02;;;;;;;0.80;0.60;;;;;;;24.12;45.50;93833.22;5062708;28;20024;-89
2023/05/11 06:12:27;;;;;;;2.35;0.50;;;;;;;23.77;46.58;93835.13;5062770;28;20314;-88
2023/05/11 06:14:53;;;;;;;0.28;0.28;;;;;;;23.94;45.89;93836.47;5062712;28;20043;-89
2023/05/11 06:17:18;;;;;;;0.70;0.50;;;;;;;24.12;45.00;93839.38;5062160;28;20031;-89
2023/05/11 06:19:44;;;;;;;0.35;0.30;;;;;;;22.90;47.21;93833.97;5079398;28;20432;-89
2023/05/11 06:22:09;;;;;;;0.40;0.40;;;;;;;24.13;44.87;93832.09;5079166;28;20023;-89
2023/05/11 06:24:34;;;;;;;0.40;0.35;;;;;;;24.23;44.38;93830.66;5062637;28;20031;-89
2023/05/11 06:27:00;;;;;;;0.22;0.20;;;;;;;23.78;45.19;93830.56;5079040;28;20035;-89
2023/05/11 06:29:25;;;;;;;1.52;0.40;;;;;;;24.00;44.86;93826.22;5062141;28;20198;-89
2023/05/11 06:31:53;;;;;;;0.40;0.40;;;;;;;24.49;43.59;93823.63;5062594;28;20383;-89
2023/05/11 06:34:19;;;;;;;2.28;0.45;;;;;;;24.16;44.54;93831.34;5063090;28;20443;-90
2023/05/11 06:36:44;;;;;;;2.53;0.30;;;;;;;24.59;43.37;93827.53;5062079;28;20032;-89
2023/05/11 06:39:10;;;;;;;0.65;0.35;;;;;;;23.34;44.76;93826.59;5079128;28;20123;-88
2023/05/11 06:41:35;;;;;;;0.80;0.40;;;;;;;24.34;43.98;93828.09;5079440;28;20379;-89
2023/05/11 06:44:01;;;;;;;0.45;0.22;;;;;;;24.88;43.40;93833.13;5078929;28;20027;-89
2023/05/11 06:46:26;;;;;;;0.60;0.40;;;;;;;24.54;44.57;93840.13;5062374;28;20134;-89
2023/05/11 06:48:52;;;;;;;0.90;0.32;;;;;;;24.36;44.36;93834.59;5079020;28;20050;-89
2023/05/11 06:51:17;;;;;;;3.20;0.38;;;;;;;23.96;43.82;93838.78;5062434;28;20030;-89
2023/05/11 06:53:43;;;;;;;4.28;0.50;;;;;;;24.96;43.09;93834.72;5078835;28;20044;-89
2023/05/11 06:56:08;;;;;;;0.52;0.30;;;;;;;24.34;43.76;93836.13;5062274;28;20031;-89
2023/05/11 06:58:34;;;;;;;0.25;0.25;;;;;;;24.81;43.91;93841.88;5062593;28;20076;-90
2023/05/11 07:01:01;;;;;;;0.30;0.30;;;;;;;24.30;45.74;93841.44;5062087;28;20322;-89
2023/05/11 07:03:26;;;;;;;0.20;0.20;;;;;;;23.96;44.29;93844.13;5062554;28;20079;-88
2023/05/11 07:05:52;;;;;;;1.52;0.25;;;;;;;24.41;44.95;93839.63;5078669;28;20060;-89
2023/05/11 07:08:17;;;;;;;2.95;0.20;;;;;;;25.50;43.45;93837.72;5062368;28;20138;-90
2023/05/11 07:10:42;;;;;;;0.82;0.40;;;;;;;25.04;45.10;93843.56;5062296;28;20126;-88
2023/05/11 07:13:08;;;;;;;0.25;0.20;;;;;;;26.04;43.63;93837.16;5062232;28;20378;-89
2023/05/11 07:15:33;;;;;;;0.40;0.40;;;;;;;24.84;46.02;93841.16;5061853;28;20069;-88
2023/05/11 07:18:00;;;;;;;1.27;0.70;;;;;;;25.41;42.29;93837.28;5078724;28;20028;-89
2023/05/11 07:20:25;;;;;;;2.38;1.00;;;;;;;24.09;44.43;93839.31;5078820;28;20023;-90
2023/05/11 07:22:51;;;;;;;3.17;1.40;;;;;;;25.12;42.18;93847.84;5078460;28;20096;-89
2023/05/11 07:25:16;;;;;;;2.67;1.15;;;;;;;25.10;43.92;93847.44;5061693;28;20031;-90
2023/05/11 07:27:42;;;;;;;2.58;1.25;;;;;;;24.92;43.73;93848.09;5061762;28;20032;-89
2023/05/11 07:30:07;;;;;;;3.58;1.30;;;;;;;24.81;45.03;93852.59;5062082;28;20027;-90
2023/05/11 07:32:33;;;;;;;1.98;1.30;;;;;;;26.02;44.24;93839.47;5078799;28;20035;-90
2023/05/11 07:34:59;;;;;;;3.55;1.45;;;;;;;26.52;42.99;93846.09;5081905;28;20067;-89
2023/05/11 07:37:24;;;;;;;3.50;1.70;;;;;;;26.09;44.56;93847.53;5065704;28;20032;-91
2023/05/11 07:39:49;;;;;;;2.97;1.70;;;;;;;26.43;43.20;93845.72;5065336;28;20028;-89
2023/05/11 07:42:15;;;;;;;4.55;2.55;;;;;;;26.77;43.32;93850.72;5081852;28;20114;-90
2023/05/11 07:44:40;;;;;;;5.35;2.88;;;;;;;26.52;40.11;93846.88;5065267;28;20111;-91
2023/05/11 07:47:06;;;;;;;6.03;3.53;;;;;;;26.20;42.22;93846.81;5081475;28;20039;-89
2023/05/11 07:49:31;;;;;;;7.03;4.05;;;;;;;26.60;40.57;93841.50;5082074;28;20098;-90
2023/05/11 07:51:57;;;;;;;7.95;3.15;;;;;;;26.79;42.13;93843.03;5081616;28;20071;-90
2023/05/11 07:54:22;;;;;;;8.38;4.50;;;;;;;25.99;41.68;93850.97;5065430;28;20028;-90
2023/05/11 07:56:47;;;;;;;8.38;3.88;;;;;;;26.52;43.08;93846.09;5065048;28;20028;-89
2023/05/11 07:59:13;;;;;;;5.70;3.03;;;;;;;27.18;41.54;93853.00;5065214;28;20495;-89
2023/05/11 08:01:38;;;;;;;8.80;3.47;;;;;;;27.67;40.63;93844.44;5081693;28;20033;-90
2023/05/11 08:04:04;;;;;;;11.18;4.05;;;;;;;26.30;43.58;93846.06;5081466;28;20032;-89
2023/05/11 08:06:30;;;;;;;6.47;3.38;;;;;;;26.17;43.44;93850.25;5065052;28;20081;-90
2023/05/11 08:08:55;;;;;;;6.45;3.95;;;;;;;26.13;41.37;93847.53;5081516;28;20032;-90
2023/05/11 08:11:21;;;;;;;9.85;5.10;;;;;;;25.53;43.25;93850.38;5064793;28;20032;-91
2023/05/11 08:13:46;;;;;;;6.60;4.00;;;;;;;26.75;40.15;93850.34;5064868;28;20176;-89
2023/05/11 08:16:12;;;;;;;7.28;4.25;;;;;;;26.64;41.00;93858.41;5081577;28;20367;-88
2023/05/11 08:18:37;;;;;;;6.70;4.18;;;;;;;25.77;40.68;93847.44;5064794;28;20348;-90
2023/05/11 08:21:03;;;;;;;10.30;4.43;;;;;;;25.23;42.66;93864.75;5064639;28;20028;-89
2023/05/11 08:23:28;;;;;;;8.07;4.80;;;;;;;24.93;42.25;93860.34;5064918;28;20077;-89
2023/05/11 08:25:54;;;;;;;8.10;4.22;;;;;;;24.89;42.43;93866.81;5064721;28;20028;-89
2023/05/11 08:28:20;;;;;;;8.00;4.03;;;;;;;24.87;43.02;93858.38;5064812;28;20034;-90
2023/05/11 08:30:46;;;;;;;10.02;4.40;;;;;;;25.84;41.56;93863.56;5064393;28;20122;-90
2023/05/11 08:33:12;;;;;;;8.38;4.40;;;;;;;24.65;45.69;93864.31;5063877;28;20032;-89
2023/05/11 08:35:38;;;;;;;5.45;3.25;;;;;;;26.60;41.54;93854.91;5064409;28;20036;-89
2023/05/11 08:38:04;;;;;;;6.20;3.28;;;;;;;26.53;40.88;93855.69;5064507;28;20093;-89
2023/05/11 08:40:30;;;;;;;9.80;2.97;;;;;;;25.11;40.36;93852.44;5064490;28;20032;-89
2023/05/11 08:42:56;;;;;;;4.10;2.67;;;;;;;25.78;38.14;93849.72;5081108;28;20031;-89
2023/05/11 08:45:22;;;;;;;5.68;2.85;;;;;;;25.81;41.28;93843.59;5080878;28;20059;-90
2023/05/11 08:47:47;;;;;;;5.18;2.60;;;;;;;25.03;42.06;93847.41;5063788;28;20067;-88
2023/05/11 08:50:13;;;;;;;6.55;3.28;;;;;;;24.31;41.96;93834.94;5063989;28;20028;-90
2023/05/11 08:52:39;;;;;;;9.80;2.45;;;;;;;25.57;43.13;93839.69;5064049;28;20425;-91
2023/05/11 08:55:08;;;;;;;8.30;2.40;;;;;;;26.60;39.75;93844.19;5063789;28;20085;-90
2023/05/11 08:57:34;;;;;;;3.88;2.42;;;;;;;24.43;41.36;93842.72;5058517;28;20504;-89
2023/05/11 09:00:04;;;;;;;3.53;2.40;;;;;;;27.76;37.54;93862.88;5042588;28;20038;-90
2023/05/11 09:02:30;;;;;;;3.83;2.40;;;;;;;25.95;40.80;93844.78;5060027;28;20031;-90
2023/05/11 09:04:57;;;;;;;4.10;2.53;;;;;;;25.64;39.16;93838.94;5043759;28;20052;-91
2023/05/11 09:07:23;;;;;;;3.50;2.40;;;;;;;25.19;40.53;93863.22;5059901;28;20145;-90
2023/05/11 09:09:49;;;;;;;3.97;2.33;;;;;;;25.46;40.38;93842.28;5076577;28;20032;-90
2023/05/11 09:12:15;;;;;;;2.85;1.88;;;;;;;27.87;38.08;93849.38;5043614;28;20025;-88
2023/05/11 09:15:13;;;;;;;5.88;1.88;;;;;;;27.42;37.38;93845.28;5059898;28;20043;-89
2023/05/11 09:17:39;;;;;;;3.88;2.08;;;;;;;26.57;38.53;93844.94;5060334;28;20032;-92
2023/05/11 09:20:06;;;;;;;5.20;2.40;;;;;;;24.25;42.70;93834.50;5059963;28;20330;-87
2023/05/11 09:22:42;;;;;;;9.82;2.60;;;;;;;27.48;40.11;93835.66;5043955;28;20341;-90
2023/05/11 09:25:11;;;;;;;3.33;2.15;;;;;;;27.41;39.50;93841.06;5043317;28;20028;-89
2023/05/11 09:27:44;;;;;;;5.53;2.17;;;;;;;28.83;41.25;93843.81;5060291;28;20032;-90
2023/05/11 09:30:20;;;;;;;3.72;1.38;;;;;;;27.29;37.85;93839.53;5059786;28;20024;-90
2023/05/11 09:32:51;;;;;;;3.35;1.90;;;;;;;28.44;39.92;93836.78;5059666;28;20063;-90
2023/05/11 09:35:27;;;;;;;3.72;1.50;;;;;;;29.44;38.12;93847.91;5059603;28;20058;-90
2023/05/11 09:38:07;;;;;;;1.92;1.30;;;;;;;29.49;36.38;93839.38;5076030;28;20026;-90
2023/05/11 09:40:38;;;;;;;9.00;1.42;;;;;;;29.98;38.26;93826.84;5043089;28;20033;-90
2023/05/11 09:43:21;;;;;;;3.70;1.42;;;;;;;30.57;37.26;93825.66;5059643;28;20025;-90
2023/05/11 09:45:48;;;;;;;2.78;1.60;;;;;;;29.43;36.69;93832.91;5043950;28;20559;-90
2023/05/11 09:48:20;;;;;;;10.95;1.83;;;;;;;30.24;36.41;93832.72;5074976;28;20070;-90
2023/05/11 09:50:50;;;;;;;2.50;1.50;;;;;;;29.31;35.21;93830.69;5062596;28;20034;-90
2023/05/11 09:53:16;;;;;;;2.53;1.20;;;;;;;29.55;37.01;93838.91;5050252;28;20032;-89
2023/05/11 09:55:52;;;;;;;4.78;1.70;;;;;;;30.14;36.72;93834.41;5059256;28;20107;-89
2023/05/11 09:58:18;;;;;;;3.22;1.50;;;;;;;31.00;36.22;93831.56;5059280;28;20029;-90
2023/05/11 10:00:50;;;;;;;9.43;1.40;;;;;;;31.80;33.21;93832.84;5059349;28;20085;-91
2023/05/11 10:03:15;;;;;;;2.35;1.30;;;;;;;29.48;33.06;93826.28;5059703;28;20055;-90
2023/05/11 10:05:55;;;;;;;2.75;1.05;;;;;;;31.55;32.36;93823.25;5059310;28;20442;-91
2023/05/11 10:08:27;;;;;;;1.27;0.80;;;;;;;31.09;32.68;93825.63;5042824;28;20031;-91
2023/05/11 10:10:53;;;;;;;2.30;1.33;;;;;;;30.47;32.54;93826.59;5042791;28;20058;-92
2023/05/11 10:13:19;;;;;;;5.60;1.48;;;;;;;31.42;32.08;93823.91;5059308;28;20348;-90
2023/05/11 10:15:45;;;;;;;3.08;1.15;;;;;;;30.41;35.16;93817.41;5045655;28;20031;-91
2023/05/11 10:18:10;;;;;;;0.95;0.85;;;;;;;30.49;32.77;93821.53;5059128;28;20028;-92
2023/05/11 10:20:37;;;;;;;2.83;0.73;;;;;;;30.77;33.44;93826.91;5059268;28;20032;-90
2023/05/11 10:23:03;;;;;;;1.40;0.85;;;;;;;29.89;35.14;93814.59;5059215;28;20028;-90
2023/05/11 10:25:29;;;;;;;4.47;0.77;;;;;;;30.22;36.63;93811.50;5058937;28;20075;-90
2023/05/11 10:27:56;;;;;;;4.57;0.80;;;;;;;31.08;33.78;93813.28;5058921;28;20063;-90
2023/05/11 10:30:21;;;;;;;1.20;0.43;;;;;;;31.35;33.32;93810.47;5059478;28;20025;-93
2023/05/11 10:32:47;;;;;;;6.63;0.77;;;;;;;30.39;34.16;93807.00;5075853;28;20081;-91
2023/05/11 10:35:13;;;;;;;0.60;0.60;;;;;;;30.70;33.64;93804.25;5058995;28;20093;-92
2023/05/11 10:37:41;;;;;;;5.13;0.70;;;;;;;30.08;35.22;93795.50;5059003;28;20029;-91
2023/05/11 10:40:07;;;;;;;2.50;0.70;;;;;;;30.94;35.04;93803.47;5058981;28;20024;-91
2023/05/11 10:42:51;;;;;;;3.05;0.63;;;;;;;29.94;34.05;93802.59;5058946;28;20032;-91
2023/05/11 10:45:25;;;;;;;2.63;1.00;;;;;;;30.03;33.27;93791.31;5076717;28;20449;-90
2023/05/11 10:48:05;;;;;;;2.65;0.93;;;;;;;29.23;38.14;93800.31;5058797;28;20040;-90
2023/05/11 10:50:37;;;;;;;4.07;0.73;;;;;;;30.93;36.38;93799.22;5076516;28;20024;-90
2023/05/11 10:53:18;;;;;;;6.27;1.20;;;;;;;29.58;36.50;93794.97;5058840;28;20024;-91
2023/05/11 10:55:46;;;;;;;1.90;1.05;;;;;;;28.98;35.97;93797.84;5058875;28;20067;-90
2023/05/11 10:58:14;;;;;;;4.20;1.40;;;;;;;28.19;36.70;93795.41;5058877;28;20035;-88
2023/05/11 11:01:07;;;;;;;3.10;1.48;;;;;;;28.56;36.62;93793.22;5058980;28;20448;-91
2023/05/11 11:03:32;;;;;;;2.65;1.05;;;;;;;28.42;39.04;93786.00;5058812;28;20075;-91
2023/05/11 11:05:58;;;;;;;2.28;1.00;;;;;;;28.31;35.83;93786.06;5058858;28;20064;-91
2023/05/11 11:08:24;;;;;;;2.38;0.75;;;;;;;29.69;33.27;93784.78;5060009;28;20154;-90
2023/05/11 11:10:50;;;;;;;2.67;0.70;;;;;;;30.06;31.78;93785.13;5046240;28;20047;-90
2023/05/11 11:13:18;;;;;;;2.20;1.00;;;;;;;30.41;33.15;93788.44;5062686;28;20036;-91
2023/05/11 11:15:53;;;;;;;2.50;0.85;;;;;;;30.79;35.48;93790.19;5046364;28;20024;-92
2023/05/11 11:18:29;;;;;;;2.45;1.00;;;;;;;31.59;31.24;93775.22;5062610;28;20175;-92
2023/05/11 11:20:57;;;;;;;7.13;1.20;;;;;;;30.43;32.84;93777.25;5045768;28;20040;-92
2023/05/11 11:23:50;;;;;;;4.32;1.58;;;;;;;29.74;35.02;93781.63;5045624;28;20059;-91
2023/05/11 11:26:55;;;;;;;5.32;2.00;;;;;;;30.96;33.48;93769.44;5062639;28;20153;-89
2023/05/11 11:29:20;;;;;;;6.38;1.67;;;;;;;30.18;33.60;93781.06;5019111;28;20041;-90
2023/05/11 11:31:47;;;;;;;5.53;1.20;;;;;;;28.72;37.17;93770.38;4985889;28;20083;-90
2023/05/11 11:34:27;;;;;;;6.53;3.95;;;;;;;29.09;36.09;93773.50;5047451;28;20068;-90
2023/05/11 11:36:53;;;;;;;6.10;4.57;;;;;;;29.23;37.96;93772.56;5079813;28;20043;-91
2023/05/11 11:39:20;;;;;;;13.13;6.32;;;;;;;27.97;40.00;93781.25;5079754;28;20029;-90
2023/05/11 11:42:00;;;;;;;8.70;6.00;;;;;;;27.97;38.90;93781.25;5061304;28;20043;-93